createdAt,value
2022-08-05T00:00:46.431Z,100.00
2022-08-05T00:06:05.409Z,100.00
2022-08-05T00:11:20.646Z,100.00
2022-08-05T00:16:35.506Z,100.00
2022-08-05T00:21:38.052Z,100.00
2022-08-05T00:26:39.454Z,100.00
2022-08-05T00:32:10.963Z,100.00
2022-08-05T00:37:14.385Z,100.00
2022-08-05T00:42:31.699Z,100.00
2022-08-05T00:47:56.553Z,100.00
2022-08-05T00:52:55.497Z,100.00
2022-08-05T00:57:59.110Z,100.00
2022-08-05T01:03:01.001Z,100.00
2022-08-05T01:08:40.963Z,100.00
2022-08-05T01:13:57.795Z,100.00
2022-08-05T01:18:58.037Z,100.00
2022-08-05T01:24:22.233Z,100.00
2022-08-05T01:29:36.444Z,100.00
2022-08-05T01:34:45.691Z,100.00
2022-08-05T01:39:48.579Z,100.00
2022-08-05T01:44:54.379Z,100.00
2022-08-05T01:50:02.122Z,100.00
2022-08-05T01:55:07.105Z,100.00
2022-08-05T02:00:11.919Z,100.00
2022-08-05T02:05:14.597Z,100.00
2022-08-05T02:10:17.511Z,100.00
2022-08-05T02:15:26.417Z,100.00
2022-08-05T02:20:44.047Z,100.00
2022-08-05T02:25:50.561Z,100.00
2022-08-05T02:30:56.651Z,100.00
2022-08-05T02:36:01.113Z,100.00
2022-08-05T02:41:06.342Z,100.00
2022-08-05T02:46:16.989Z,100.00
2022-08-05T02:52:03.735Z,98.43
2022-08-05T02:56:51.394Z,98.99
2022-08-05T03:01:58.093Z,100.00
2022-08-05T03:07:00.479Z,100.00
2022-08-05T03:12:01.957Z,100.00
2022-08-05T03:17:07.343Z,100.00
2022-08-05T03:22:16.596Z,100.00
2022-08-05T03:27:20.049Z,100.00
2022-08-05T03:32:21.785Z,100.00
2022-08-05T03:37:41.009Z,100.00
2022-08-05T03:42:52.244Z,100.00
2022-08-05T03:47:56.825Z,100.00
2022-08-05T03:55:49.953Z,100.00
2022-08-05T03:58:33.269Z,100.00
2022-08-05T04:03:38.034Z,100.00
2022-08-05T04:08:39.865Z,100.00
2022-08-05T04:13:50.305Z,100.00
2022-08-05T04:18:53.900Z,100.00
2022-08-05T04:24:05.875Z,100.00
2022-08-05T04:29:08.285Z,100.00
2022-08-05T04:34:18.526Z,100.00
2022-08-05T04:39:33.457Z,100.00
2022-08-05T04:44:36.993Z,100.00
2022-08-05T04:50:01.369Z,100.00
2022-08-05T04:55:14.548Z,100.00
2022-08-05T05:00:16.869Z,100.00
2022-08-05T05:05:28.466Z,100.00
2022-08-05T05:10:33.399Z,100.00
2022-08-05T05:15:57.607Z,100.00
2022-08-05T05:20:56.480Z,100.00
2022-08-05T05:25:59.947Z,100.00
2022-08-05T05:31:02.037Z,100.00
2022-08-05T05:36:07.231Z,100.00
2022-08-05T05:41:08.583Z,100.00
2022-08-05T05:46:17.736Z,100.00
2022-08-05T05:51:21.047Z,100.00
2022-08-05T05:56:26.127Z,100.00
2022-08-05T06:01:39.376Z,100.00
2022-08-05T06:06:42.787Z,100.00
2022-08-05T06:12:01.401Z,100.00
2022-08-05T06:17:53.093Z,100.00
2022-08-05T06:22:27.977Z,100.00
2022-08-05T06:28:11.134Z,100.00
2022-08-05T06:32:50.968Z,100.00
2022-08-05T06:37:56.138Z,100.00
2022-08-05T06:42:59.804Z,100.00
2022-08-05T06:48:44.248Z,98.19
2022-08-05T06:53:28.610Z,98.35
2022-08-05T06:58:36.286Z,100.00
2022-08-05T07:03:38.146Z,95.14
2022-08-05T07:08:39.765Z,93.51
2022-08-05T07:14:02.385Z,93.48
2022-08-05T07:19:04.209Z,91.47
2022-08-05T07:24:05.808Z,93.22
2022-08-05T07:29:12.870Z,96.99
2022-08-05T07:34:14.243Z,98.66
2022-08-05T07:39:24.826Z,98.01
2022-08-05T07:44:43.962Z,99.37
2022-08-05T07:49:54.647Z,96.81
2022-08-05T07:54:56.206Z,92.52
2022-08-05T07:59:57.556Z,94.04
2022-08-05T08:04:59.128Z,97.43
2022-08-05T08:10:01.067Z,96.90
2022-08-05T08:15:03.696Z,95.86
2022-08-05T08:20:43.360Z,95.12
2022-08-05T08:26:00.123Z,91.76
2022-08-05T08:30:52.504Z,90.30
2022-08-05T08:36:07.798Z,90.32
2022-08-05T08:41:15.725Z,93.06
2022-08-05T08:46:20.021Z,91.88
2022-08-05T08:52:02.981Z,87.76
2022-08-05T08:56:47.748Z,85.18
2022-08-05T09:01:57.425Z,82.64
2022-08-05T09:07:02.400Z,85.74
2022-08-05T09:12:20.458Z,88.58
2022-08-05T09:17:42.498Z,88.26
2022-08-05T09:23:05.321Z,85.85
2022-08-05T09:28:13.124Z,86.17
2022-08-05T09:33:15.289Z,85.65
2022-08-05T09:38:27.254Z,78.81
2022-08-05T09:43:41.104Z,77.62
2022-08-05T09:48:43.373Z,75.66
2022-08-05T09:54:08.381Z,76.27
2022-08-05T09:59:17.133Z,77.04
2022-08-05T10:04:18.831Z,78.16
2022-08-05T10:09:30.628Z,81.32
2022-08-05T10:14:46.527Z,81.22
2022-08-05T10:20:04.097Z,79.12
2022-08-05T10:25:10.722Z,77.94
2022-08-05T10:32:49.145Z,71.18
2022-08-05T10:35:40.601Z,70.61
2022-08-05T10:40:58.164Z,75.91
2022-08-05T10:46:06.799Z,82.05
2022-08-05T10:51:21.671Z,84.66
2022-08-05T10:56:28.368Z,87.03
2022-08-05T11:01:55.496Z,88.03
2022-08-05T11:06:58.309Z,91.10
2022-08-05T11:11:59.783Z,87.86
2022-08-05T11:17:58.122Z,90.05
2022-08-05T11:22:42.590Z,91.69
2022-08-05T11:27:51.059Z,93.31
2022-08-05T11:33:20.926Z,93.13
2022-08-05T11:38:45.364Z,90.99
2022-08-05T11:44:06.252Z,90.75
2022-08-05T11:49:13.350Z,88.33
2022-08-05T11:54:24.407Z,86.77
2022-08-05T11:59:49.763Z,88.29
2022-08-05T12:04:59.297Z,87.62
2022-08-05T12:10:09.203Z,86.77
2022-08-05T12:15:20.043Z,81.54
2022-08-05T12:20:39.493Z,81.50
2022-08-05T12:26:09.052Z,81.56
2022-08-05T12:31:10.764Z,78.12
2022-08-05T12:36:24.940Z,72.97
2022-08-05T12:41:34.222Z,68.00
2022-08-05T12:46:37.160Z,66.46
2022-08-05T12:52:11.158Z,67.20
2022-08-05T12:57:09.749Z,67.09
2022-08-05T13:02:12.466Z,64.29
2022-08-05T13:07:17.277Z,64.41
2022-08-05T13:12:19.766Z,66.67
2022-08-05T13:17:31.906Z,67.97
2022-08-05T13:22:43.621Z,65.05
2022-08-05T13:27:50.197Z,61.33
2022-08-05T13:32:52.373Z,59.11
2022-08-05T13:37:57.815Z,60.18
2022-08-05T13:43:06.460Z,55.82
2022-08-05T13:48:58.582Z,54.31
2022-08-05T13:53:35.203Z,54.73
2022-08-05T13:58:52.832Z,52.17
2022-08-05T14:04:13.644Z,56.71
2022-08-05T14:09:16.197Z,56.89
2022-08-05T14:14:25.470Z,57.61
2022-08-05T14:19:27.501Z,54.71
2022-08-05T14:24:30.545Z,55.10
2022-08-05T14:29:32.670Z,53.62
2022-08-05T14:34:35.759Z,52.73
2022-08-05T14:39:49.384Z,51.37
2022-08-05T14:44:52.102Z,52.18
2022-08-05T14:49:56.354Z,53.72
2022-08-05T14:55:02.123Z,54.17
2022-08-05T15:00:03.897Z,54.19
2022-08-05T15:05:13.188Z,52.87
2022-08-05T15:10:15.024Z,55.34
2022-08-05T15:15:16.764Z,53.71
2022-08-05T15:20:38.841Z,53.72
2022-08-05T15:25:51.441Z,54.16
2022-08-05T15:30:55.311Z,55.15
2022-08-05T15:35:56.662Z,54.67
2022-08-05T15:41:20.836Z,54.42
2022-08-05T15:46:20.583Z,55.93
2022-08-05T15:52:09.823Z,54.54
2022-08-05T15:56:47.753Z,54.56
2022-08-05T16:01:53.110Z,55.18
2022-08-05T16:06:55.769Z,55.73
2022-08-05T16:11:57.651Z,57.24
2022-08-05T16:16:59.299Z,56.87
2022-08-05T16:22:03.350Z,56.97
2022-08-05T16:27:07.228Z,56.85
2022-08-05T16:32:09.715Z,56.30
2022-08-05T16:38:02.037Z,55.23
2022-08-05T16:42:33.287Z,54.97
2022-08-05T16:47:36.170Z,53.88
2022-08-05T16:52:46.095Z,51.69
2022-08-05T16:57:59.951Z,53.29
2022-08-05T17:03:15.233Z,52.15
2022-08-05T17:08:36.569Z,53.21
2022-08-05T17:13:43.778Z,53.35
2022-08-05T17:18:45.198Z,53.33
2022-08-05T17:24:05.137Z,53.50
2022-08-05T17:29:10.159Z,53.44
2022-08-05T17:34:11.687Z,53.97
2022-08-05T17:39:24.117Z,56.15
2022-08-05T17:44:32.543Z,55.34
2022-08-05T17:50:00.117Z,54.72
2022-08-05T17:54:55.394Z,56.75
2022-08-05T18:00:05.124Z,55.31
2022-08-05T18:05:08.106Z,56.33
2022-08-05T18:10:11.143Z,56.70
2022-08-05T18:15:12.863Z,57.97
2022-08-05T18:20:15.395Z,56.85
2022-08-05T18:25:17.503Z,55.93
2022-08-05T18:30:18.837Z,57.37
2022-08-05T18:35:20.980Z,56.09
2022-08-05T18:41:56.682Z,56.12
2022-08-05T18:46:04.345Z,57.16
2022-08-05T18:52:03.974Z,56.17
2022-08-05T18:56:51.064Z,56.87
2022-08-05T19:01:58.189Z,56.24
2022-08-05T19:07:00.010Z,55.30
2022-08-05T19:12:01.770Z,54.52
2022-08-05T19:17:03.260Z,53.89
2022-08-05T19:22:07.865Z,54.86
2022-08-05T19:27:11.461Z,53.71
2022-08-05T19:32:14.784Z,52.93
2022-08-05T19:37:17.140Z,54.05
2022-08-05T19:42:35.581Z,52.19
2022-08-05T19:47:38.013Z,52.30
2022-08-05T19:52:39.476Z,51.25
2022-08-05T19:57:49.355Z,50.91
2022-08-05T20:03:05.211Z,52.94
2022-08-05T20:08:10.259Z,52.49
2022-08-05T20:13:12.140Z,51.39
2022-08-05T20:18:33.649Z,51.91
2022-08-05T20:23:39.493Z,52.21
2022-08-05T20:28:55.948Z,52.76
2022-08-05T20:33:57.653Z,52.92
2022-08-05T20:38:59.225Z,54.04
2022-08-05T20:44:15.455Z,54.41
2022-08-05T20:49:24.523Z,53.04
2022-08-05T20:54:59.680Z,54.42
2022-08-05T21:00:19.873Z,55.83
2022-08-05T21:05:11.207Z,56.06
2022-08-05T21:10:13.732Z,57.22
2022-08-05T21:15:15.961Z,55.97
2022-08-05T21:20:33.425Z,59.22
2022-08-05T21:25:35.640Z,58.74
2022-08-05T21:30:37.996Z,60.36
2022-08-05T21:35:55.838Z,58.67
2022-08-05T21:40:59.979Z,58.37
2022-08-05T21:46:01.579Z,59.56
2022-08-05T21:51:25.345Z,61.36
2022-08-05T21:56:26.826Z,61.86
2022-08-05T22:01:28.232Z,61.12
2022-08-05T22:06:39.630Z,64.16
2022-08-05T22:11:41.337Z,63.50
2022-08-05T22:16:51.086Z,64.31
2022-08-05T22:21:54.364Z,63.72
2022-08-05T22:27:17.274Z,65.56
2022-08-05T22:32:18.984Z,64.88
2022-08-05T22:37:20.822Z,65.96
2022-08-05T22:42:26.150Z,65.74
2022-08-05T22:47:29.684Z,67.20
2022-08-05T22:52:34.405Z,68.90
2022-08-05T22:57:36.549Z,69.52
2022-08-05T23:02:40.044Z,68.28
2022-08-05T23:07:50.200Z,69.26
2022-08-05T23:12:55.151Z,69.33
2022-08-05T23:18:00.923Z,68.46
2022-08-05T23:23:08.039Z,68.94
2022-08-05T23:28:10.120Z,69.32
2022-08-05T23:33:15.949Z,70.49
2022-08-05T23:38:20.430Z,70.40
2022-08-05T23:43:25.138Z,71.47
2022-08-05T23:48:45.505Z,72.54
2022-08-05T23:54:02.609Z,73.11
2022-08-05T23:59:03.973Z,73.75
